FFT2857 KLAX-KSFO
Flight info
| Callsign | FFT2857 |
|---|---|
| Flight time | 0h 53m |
| Altitude | 34000 |
| Route | SUMMR2 STOKD SERFR SERFR4 |
| Aircraft | A320/M-SDE3FGHIRWY/LB1 |
Departure
| Time | 2026-05-04 17:35 |
|---|---|
| Airport | Los Angeles International Airport (KLAX) |
Arrival
| Time | 2026-05-04 18:28 |
|---|---|
| Airport | San Francisco International Airport (KSFO) |
| Time | Latitude | Longitude | Altitude | Speed | Heading |
|---|---|---|---|---|---|
| 2026-05-04 17:22 | 33.94121 | -118.41413 | 92 ft | 0 kts | 291° |
| 2026-05-04 17:26 | 33.94118 | -118.41402 | 93 ft | 2 kts | 291° |
| 2026-05-04 17:26 | 33.94111 | -118.41345 | 91 ft | 2 kts | 254° |
| 2026-05-04 17:27 | 33.94125 | -118.41311 | 92 ft | 2 kts | 220° |
| 2026-05-04 17:27 | 33.94140 | -118.41300 | 92 ft | 0 kts | 178° |
| 2026-05-04 17:29 | 33.93921 | -118.41268 | 93 ft | 29 kts | 174° |
| 2026-05-04 17:29 | 33.93806 | -118.40718 | 94 ft | 37 kts | 83° |
| 2026-05-04 17:30 | 33.93903 | -118.39760 | 95 ft | 40 kts | 83° |
| 2026-05-04 17:31 | 33.93974 | -118.39080 | 94 ft | 41 kts | 83° |
| 2026-05-04 17:31 | 33.94078 | -118.38061 | 93 ft | 22 kts | 83° |
| 2026-05-04 17:32 | 33.93980 | -118.38048 | 95 ft | 0 kts | 263° |
| 2026-05-04 17:34 | 33.93968 | -118.38182 | 97 ft | 49 kts | 263° |
| 2026-05-04 17:35 | 33.93646 | -118.41310 | 831 ft | 157 kts | 261° |
| 2026-05-04 17:35 | 33.93378 | -118.43942 | 2221 ft | 168 kts | 264° |
| 2026-05-04 17:35 | 33.93231 | -118.45419 | 2535 ft | 190 kts | 263° |
| 2026-05-04 17:36 | 33.93072 | -118.47104 | 2844 ft | 214 kts | 264° |
| 2026-05-04 17:36 | 33.92912 | -118.48992 | 3308 ft | 238 kts | 265° |
| 2026-05-04 17:36 | 33.92745 | -118.51025 | 4065 ft | 249 kts | 264° |
| 2026-05-04 17:36 | 33.92574 | -118.53120 | 5020 ft | 253 kts | 265° |
| 2026-05-04 17:37 | 33.92400 | -118.55243 | 5977 ft | 256 kts | 265° |
| 2026-05-04 17:37 | 33.92222 | -118.57393 | 6892 ft | 260 kts | 265° |
| 2026-05-04 17:37 | 33.92042 | -118.59575 | 7796 ft | 263 kts | 264° |
| 2026-05-04 17:37 | 33.91861 | -118.61780 | 8725 ft | 266 kts | 264° |
| 2026-05-04 17:38 | 33.91768 | -118.64019 | 9661 ft | 270 kts | 269° |
| 2026-05-04 17:38 | 33.91764 | -118.66310 | 10310 ft | 282 kts | 269° |
| 2026-05-04 17:38 | 33.91756 | -118.68766 | 10688 ft | 302 kts | 269° |
| 2026-05-04 17:38 | 33.91747 | -118.71322 | 11371 ft | 309 kts | 269° |
| 2026-05-04 17:39 | 33.91726 | -118.76574 | 12896 ft | 318 kts | 268° |
| 2026-05-04 17:39 | 33.91713 | -118.79247 | 13673 ft | 321 kts | 268° |
| 2026-05-04 17:39 | 33.91700 | -118.81950 | 14380 ft | 324 kts | 268° |
| 2026-05-04 17:40 | 33.91699 | -118.84670 | 15114 ft | 325 kts | 268° |
| 2026-05-04 17:40 | 33.91756 | -118.87394 | 15867 ft | 326 kts | 269° |
| 2026-05-04 17:40 | 33.91846 | -118.90125 | 16638 ft | 326 kts | 269° |
| 2026-05-04 17:40 | 33.91946 | -118.92854 | 17400 ft | 327 kts | 268° |
| 2026-05-04 17:41 | 33.92045 | -118.95590 | 18156 ft | 327 kts | 268° |
| 2026-05-04 17:41 | 33.92141 | -118.98333 | 18804 ft | 329 kts | 268° |
| 2026-05-04 17:41 | 33.92484 | -119.01080 | 19394 ft | 337 kts | 279° |
| 2026-05-04 17:41 | 33.93344 | -119.03752 | 20006 ft | 348 kts | 290° |
| 2026-05-04 17:42 | 33.94612 | -119.06278 | 20597 ft | 354 kts | 294° |
| 2026-05-04 17:42 | 33.95918 | -119.08797 | 21171 ft | 356 kts | 294° |
| 2026-05-04 17:42 | 33.97231 | -119.11338 | 21729 ft | 358 kts | 293° |
| 2026-05-04 17:42 | 33.98552 | -119.13893 | 22264 ft | 361 kts | 293° |
| 2026-05-04 17:43 | 33.99896 | -119.16461 | 22795 ft | 366 kts | 295° |
| 2026-05-04 17:43 | 34.01551 | -119.18861 | 23308 ft | 380 kts | 306° |
| 2026-05-04 17:43 | 34.03637 | -119.20923 | 23822 ft | 394 kts | 314° |
| 2026-05-04 17:43 | 34.05885 | -119.22832 | 24247 ft | 396 kts | 314° |
| 2026-05-04 17:44 | 34.08140 | -119.24758 | 24649 ft | 399 kts | 313° |
| 2026-05-04 17:44 | 34.10410 | -119.26710 | 25070 ft | 401 kts | 313° |
| 2026-05-04 17:44 | 34.12692 | -119.28677 | 25489 ft | 404 kts | 313° |
| 2026-05-04 17:44 | 34.14987 | -119.30660 | 25916 ft | 408 kts | 312° |
| 2026-05-04 17:45 | 34.17298 | -119.32662 | 26424 ft | 411 kts | 312° |
| 2026-05-04 17:45 | 34.19640 | -119.34690 | 26821 ft | 416 kts | 312° |
| 2026-05-04 17:45 | 34.21202 | -119.36041 | 27118 ft | 418 kts | 311° |
| 2026-05-04 17:45 | 34.24375 | -119.38784 | 27605 ft | 422 kts | 311° |
| 2026-05-04 17:46 | 34.25960 | -119.40153 | 27832 ft | 424 kts | 311° |
| 2026-05-04 17:46 | 34.28367 | -119.42230 | 28188 ft | 427 kts | 311° |
| 2026-05-04 17:46 | 34.30793 | -119.44323 | 28539 ft | 430 kts | 311° |
| 2026-05-04 17:46 | 34.33239 | -119.46434 | 28870 ft | 433 kts | 311° |
| 2026-05-04 17:47 | 34.35695 | -119.48558 | 29218 ft | 436 kts | 311° |
| 2026-05-04 17:47 | 34.38169 | -119.50703 | 29551 ft | 439 kts | 311° |
| 2026-05-04 17:47 | 34.40630 | -119.52890 | 29915 ft | 436 kts | 307° |
| 2026-05-04 17:47 | 34.42835 | -119.55345 | 30228 ft | 428 kts | 301° |
| 2026-05-04 17:48 | 34.44925 | -119.57920 | 30514 ft | 430 kts | 301° |
| 2026-05-04 17:48 | 34.47027 | -119.60510 | 30805 ft | 432 kts | 301° |
| 2026-05-04 17:48 | 34.49137 | -119.63111 | 31094 ft | 433 kts | 302° |
| 2026-05-04 17:48 | 34.51256 | -119.65722 | 31340 ft | 436 kts | 301° |
| 2026-05-04 17:49 | 34.53386 | -119.68347 | 31669 ft | 436 kts | 301° |
| 2026-05-04 17:49 | 34.55513 | -119.70962 | 32151 ft | 435 kts | 301° |
| 2026-05-04 17:49 | 34.57635 | -119.73566 | 32612 ft | 433 kts | 300° |
| 2026-05-04 17:49 | 34.59745 | -119.76160 | 33051 ft | 431 kts | 300° |
| 2026-05-04 17:50 | 34.61841 | -119.78744 | 33505 ft | 428 kts | 300° |
| 2026-05-04 17:50 | 34.63920 | -119.81316 | 33910 ft | 427 kts | 300° |
| 2026-05-04 17:50 | 34.65993 | -119.83891 | 34054 ft | 425 kts | 300° |
| 2026-05-04 17:50 | 34.68036 | -119.86415 | 34049 ft | 415 kts | 300° |
| 2026-05-04 17:51 | 34.72090 | -119.91459 | 34049 ft | 424 kts | 300° |
| 2026-05-04 17:51 | 34.76239 | -119.96649 | 34050 ft | 430 kts | 302° |
| 2026-05-04 17:52 | 34.80422 | -120.01835 | 34059 ft | 429 kts | 302° |
| 2026-05-04 17:52 | 34.84617 | -120.07033 | 34062 ft | 431 kts | 302° |
| 2026-05-04 17:53 | 34.88811 | -120.12252 | 34081 ft | 431 kts | 303° |
| 2026-05-04 17:53 | 34.92992 | -120.17473 | 34080 ft | 433 kts | 304° |
| 2026-05-04 17:54 | 34.97203 | -120.22752 | 34066 ft | 432 kts | 304° |
| 2026-05-04 17:54 | 35.01393 | -120.28015 | 34061 ft | 433 kts | 304° |
| 2026-05-04 17:55 | 35.05582 | -120.33279 | 34069 ft | 432 kts | 304° |
| 2026-05-04 17:55 | 35.09793 | -120.38536 | 34082 ft | 435 kts | 305° |
| 2026-05-04 17:56 | 35.14237 | -120.43594 | 34104 ft | 439 kts | 307° |
| 2026-05-04 17:56 | 35.18805 | -120.48555 | 34081 ft | 439 kts | 307° |
| 2026-05-04 17:57 | 35.23328 | -120.53542 | 34102 ft | 437 kts | 306° |
| 2026-05-04 17:57 | 35.27791 | -120.58577 | 34090 ft | 437 kts | 306° |
| 2026-05-04 17:58 | 35.32254 | -120.63631 | 34081 ft | 437 kts | 306° |
| 2026-05-04 17:58 | 35.36725 | -120.68675 | 34081 ft | 437 kts | 306° |
| 2026-05-04 17:59 | 35.41194 | -120.73719 | 34096 ft | 437 kts | 306° |
| 2026-05-04 18:00 | 35.47886 | -120.81289 | 34108 ft | 438 kts | 307° |
| 2026-05-04 18:00 | 35.52782 | -120.85932 | 34098 ft | 446 kts | 311° |
| 2026-05-04 18:01 | 35.57739 | -120.90522 | 34129 ft | 446 kts | 311° |
| 2026-05-04 18:01 | 35.62690 | -120.95118 | 34109 ft | 446 kts | 311° |
| 2026-05-04 18:02 | 35.70117 | -121.02035 | 34111 ft | 446 kts | 311° |
| 2026-05-04 18:02 | 35.75064 | -121.06653 | 34127 ft | 447 kts | 312° |
| 2026-05-04 18:03 | 35.80017 | -121.11275 | 34113 ft | 447 kts | 311° |
| 2026-05-04 18:03 | 35.84964 | -121.15909 | 34103 ft | 446 kts | 311° |
| 2026-05-04 18:04 | 35.89904 | -121.20553 | 34098 ft | 447 kts | 311° |
| 2026-05-04 18:05 | 35.97327 | -121.27515 | 34117 ft | 447 kts | 313° |
| 2026-05-04 18:05 | 36.02286 | -121.32172 | 33769 ft | 448 kts | 313° |
| 2026-05-04 18:05 | 36.04776 | -121.34522 | 32701 ft | 454 kts | 314° |
| 2026-05-04 18:06 | 36.10054 | -121.38975 | 31208 ft | 459 kts | 321° |
| 2026-05-04 18:06 | 36.12710 | -121.41028 | 30637 ft | 453 kts | 321° |
| 2026-05-04 18:06 | 36.15407 | -121.43120 | 30035 ft | 449 kts | 322° |
| 2026-05-04 18:07 | 36.18026 | -121.45159 | 29432 ft | 442 kts | 322° |
| 2026-05-04 18:07 | 36.20608 | -121.47177 | 28901 ft | 435 kts | 322° |
| 2026-05-04 18:07 | 36.23146 | -121.49162 | 28358 ft | 428 kts | 323° |
| 2026-05-04 18:07 | 36.25646 | -121.51117 | 27839 ft | 421 kts | 323° |
| 2026-05-04 18:08 | 36.28072 | -121.53018 | 27336 ft | 416 kts | 324° |
| 2026-05-04 18:08 | 36.30531 | -121.54944 | 26819 ft | 410 kts | 324° |
| 2026-05-04 18:08 | 36.32928 | -121.56827 | 26321 ft | 405 kts | 324° |
| 2026-05-04 18:08 | 36.35259 | -121.58661 | 25841 ft | 400 kts | 324° |
| 2026-05-04 18:09 | 36.39900 | -121.62316 | 24903 ft | 390 kts | 325° |
| 2026-05-04 18:09 | 36.44466 | -121.65915 | 24001 ft | 382 kts | 327° |
| 2026-05-04 18:10 | 36.46666 | -121.67652 | 23554 ft | 378 kts | 328° |
| 2026-05-04 18:10 | 36.48870 | -121.69391 | 23100 ft | 373 kts | 328° |
| 2026-05-04 18:10 | 36.51043 | -121.71105 | 22687 ft | 367 kts | 328° |
| 2026-05-04 18:10 | 36.53184 | -121.72791 | 22275 ft | 363 kts | 328° |
| 2026-05-04 18:11 | 36.55303 | -121.74463 | 21874 ft | 359 kts | 328° |
| 2026-05-04 18:11 | 36.57401 | -121.76120 | 21430 ft | 356 kts | 328° |
| 2026-05-04 18:11 | 36.59487 | -121.77769 | 21010 ft | 354 kts | 329° |
| 2026-05-04 18:11 | 36.61562 | -121.79413 | 20596 ft | 353 kts | 329° |
| 2026-05-04 18:12 | 36.63628 | -121.81052 | 20157 ft | 351 kts | 329° |
| 2026-05-04 18:12 | 36.65681 | -121.82684 | 19718 ft | 350 kts | 329° |
| 2026-05-04 18:12 | 36.67725 | -121.84313 | 19272 ft | 348 kts | 329° |
| 2026-05-04 18:12 | 36.69767 | -121.85937 | 18817 ft | 348 kts | 329° |
| 2026-05-04 18:13 | 36.71804 | -121.87555 | 18386 ft | 347 kts | 329° |
| 2026-05-04 18:13 | 36.73908 | -121.89008 | 17886 ft | 344 kts | 338° |
| 2026-05-04 18:13 | 36.78476 | -121.90610 | 16930 ft | 340 kts | 349° |
| 2026-05-04 18:14 | 36.80779 | -121.91253 | 16480 ft | 339 kts | 349° |
| 2026-05-04 18:14 | 36.83072 | -121.91896 | 16034 ft | 338 kts | 349° |
| 2026-05-04 18:14 | 36.85362 | -121.92539 | 15590 ft | 337 kts | 349° |
| 2026-05-04 18:15 | 36.89927 | -121.93820 | 14709 ft | 336 kts | 349° |
| 2026-05-04 18:15 | 36.94481 | -121.95095 | 13785 ft | 336 kts | 348° |
| 2026-05-04 18:15 | 36.96738 | -121.95799 | 13296 ft | 335 kts | 346° |
| 2026-05-04 18:16 | 36.98977 | -121.96632 | 12839 ft | 334 kts | 345° |
| 2026-05-04 18:16 | 37.01182 | -121.97517 | 12365 ft | 332 kts | 343° |
| 2026-05-04 18:16 | 37.03373 | -121.98413 | 11888 ft | 331 kts | 343° |
| 2026-05-04 18:17 | 37.07735 | -122.00180 | 10940 ft | 329 kts | 343° |
| 2026-05-04 18:17 | 37.09913 | -122.01048 | 10461 ft | 328 kts | 343° |
| 2026-05-04 18:17 | 37.14118 | -122.02701 | 10186 ft | 305 kts | 344° |
| 2026-05-04 18:18 | 37.16110 | -122.03479 | 9992 ft | 297 kts | 344° |
| 2026-05-04 18:18 | 37.18060 | -122.04239 | 9876 ft | 291 kts | 343° |
| 2026-05-04 18:18 | 37.19971 | -122.04986 | 9728 ft | 285 kts | 344° |
| 2026-05-04 18:18 | 37.21857 | -122.05723 | 9396 ft | 284 kts | 343° |
| 2026-05-04 18:19 | 37.25609 | -122.07195 | 8457 ft | 280 kts | 343° |
| 2026-05-04 18:19 | 37.27451 | -122.07918 | 8016 ft | 277 kts | 343° |
| 2026-05-04 18:19 | 37.29293 | -122.08642 | 7633 ft | 277 kts | 343° |
| 2026-05-04 18:20 | 37.31125 | -122.09366 | 7265 ft | 275 kts | 343° |
| 2026-05-04 18:20 | 37.32950 | -122.10085 | 6906 ft | 274 kts | 342° |
| 2026-05-04 18:20 | 37.34762 | -122.10799 | 6549 ft | 272 kts | 342° |
| 2026-05-04 18:20 | 37.36563 | -122.11507 | 6173 ft | 270 kts | 342° |
| 2026-05-04 18:21 | 37.38351 | -122.12201 | 5823 ft | 267 kts | 343° |
| 2026-05-04 18:21 | 37.40126 | -122.12831 | 5507 ft | 263 kts | 344° |
| 2026-05-04 18:21 | 37.41873 | -122.13422 | 5199 ft | 258 kts | 345° |
| 2026-05-04 18:21 | 37.43594 | -122.13998 | 4892 ft | 254 kts | 344° |
| 2026-05-04 18:22 | 37.45285 | -122.14566 | 4586 ft | 249 kts | 345° |
| 2026-05-04 18:22 | 37.46948 | -122.15117 | 4283 ft | 245 kts | 344° |
| 2026-05-04 18:22 | 37.48586 | -122.15652 | 3989 ft | 241 kts | 345° |
| 2026-05-04 18:22 | 37.50199 | -122.16177 | 3699 ft | 238 kts | 344° |
| 2026-05-04 18:23 | 37.51793 | -122.16702 | 3426 ft | 235 kts | 342° |
| 2026-05-04 18:23 | 37.53227 | -122.17561 | 3246 ft | 222 kts | 321° |
| 2026-05-04 18:23 | 37.54259 | -122.18914 | 3008 ft | 209 kts | 301° |
| 2026-05-04 18:23 | 37.54941 | -122.20476 | 2749 ft | 198 kts | 296° |
| 2026-05-04 18:24 | 37.55560 | -122.21945 | 2519 ft | 180 kts | 296° |
| 2026-05-04 18:24 | 37.56113 | -122.23256 | 2294 ft | 158 kts | 297° |
| 2026-05-04 18:24 | 37.56603 | -122.24419 | 2074 ft | 143 kts | 296° |
| 2026-05-04 18:24 | 37.57052 | -122.25486 | 1873 ft | 136 kts | 296° |
| 2026-05-04 18:25 | 37.57490 | -122.26527 | 1703 ft | 133 kts | 296° |
| 2026-05-04 18:25 | 37.57924 | -122.27557 | 1493 ft | 133 kts | 296° |
| 2026-05-04 18:25 | 37.58353 | -122.28577 | 1327 ft | 132 kts | 296° |
| 2026-05-04 18:25 | 37.58782 | -122.29598 | 1161 ft | 132 kts | 297° |
| 2026-05-04 18:26 | 37.59216 | -122.30628 | 981 ft | 133 kts | 296° |
| 2026-05-04 18:26 | 37.59643 | -122.31643 | 802 ft | 130 kts | 295° |
| 2026-05-04 18:26 | 37.59924 | -122.32313 | 684 ft | 130 kts | 295° |
| 2026-05-04 18:26 | 37.60347 | -122.33318 | 509 ft | 130 kts | 295° |
| 2026-05-04 18:27 | 37.60778 | -122.34334 | 336 ft | 132 kts | 295° |
| 2026-05-04 18:27 | 37.61203 | -122.35351 | 126 ft | 130 kts | 294° |
| 2026-05-04 18:27 | 37.61616 | -122.36340 | 26 ft | 119 kts | 295° |
| 2026-05-04 18:27 | 37.61926 | -122.37081 | 21 ft | 71 kts | 298° |
| 2026-05-04 18:28 | 37.62090 | -122.37479 | 22 ft | 48 kts | 297° |
| 2026-05-04 18:28 | 37.62226 | -122.37856 | 21 ft | 42 kts | 278° |
| 2026-05-04 18:28 | 37.62227 | -122.38064 | 21 ft | 16 kts | 270° |
| 2026-05-04 18:28 | 37.62227 | -122.38211 | 22 ft | 18 kts | 267° |
| 2026-05-04 18:29 | 37.62221 | -122.38375 | 21 ft | 19 kts | 270° |
| 2026-05-04 18:29 | 37.62195 | -122.38524 | 21 ft | 13 kts | 192° |
| 2026-05-04 18:29 | 37.62139 | -122.38438 | 22 ft | 13 kts | 116° |
| 2026-05-04 18:29 | 37.62098 | -122.38338 | 23 ft | 15 kts | 118° |
| 2026-05-04 18:30 | 37.62003 | -122.38113 | 21 ft | 17 kts | 117° |
| 2026-05-04 18:30 | 37.61932 | -122.37967 | 21 ft | 22 kts | 133° |
| 2026-05-04 18:30 | 37.61787 | -122.37868 | 21 ft | 24 kts | 176° |
| 2026-05-04 18:31 | 37.61644 | -122.37977 | 21 ft | 26 kts | 208° |
| 2026-05-04 18:31 | 37.61475 | -122.38089 | 22 ft | 29 kts | 208° |
| 2026-05-04 18:31 | 37.61299 | -122.38205 | 22 ft | 29 kts | 208° |
| 2026-05-04 18:31 | 37.61110 | -122.38328 | 22 ft | 32 kts | 208° |
| 2026-05-04 18:32 | 37.60920 | -122.38477 | 21 ft | 30 kts | 209° |
| 2026-05-04 18:32 | 37.60925 | -122.38661 | 21 ft | 25 kts | 296° |
| 2026-05-04 18:32 | 37.61016 | -122.38861 | 21 ft | 25 kts | 315° |
| 2026-05-04 18:32 | 37.61139 | -122.38894 | 21 ft | 15 kts | 310° |
| 2026-05-04 18:33 | 37.61163 | -122.38950 | 23 ft | 0 kts | 298° |